createdAt,value
2022-09-07T00:14:51.374Z,4.40
2022-09-07T00:18:59.291Z,3.70
2022-09-07T00:35:38.821Z,3.10
2022-09-07T00:39:48.029Z,6.40
2022-09-07T00:43:50.223Z,8.60
2022-09-07T01:12:04.827Z,4.60
2022-09-07T01:16:19.330Z,6.60
2022-09-07T01:20:33.302Z,4.60
2022-09-07T01:24:56.649Z,6.30
2022-09-07T01:29:23.193Z,5.30
2022-09-07T01:33:48.848Z,5.80
2022-09-07T01:38:25.476Z,5.90
2022-09-07T02:20:55.459Z,13.70
2022-09-07T02:29:21.354Z,6.10
2022-09-07T02:33:03.293Z,6.10
2022-09-07T03:36:38.958Z,9.60
2022-09-07T03:40:46.952Z,11.50
2022-09-07T04:01:32.699Z,6.80
2022-09-07T04:05:42.135Z,6.00
2022-09-07T04:26:28.492Z,7.70
2022-09-07T04:30:38.256Z,9.10
2022-09-07T04:43:01.497Z,6.90
2022-09-07T04:47:09.853Z,8.80
2022-09-07T04:51:17.931Z,9.40
2022-09-07T04:55:05.965Z,9.40
2022-09-07T05:18:40.997Z,15.90
2022-09-07T05:22:29.969Z,10.70
2022-09-07T05:26:38.109Z,8.50
2022-09-07T05:51:37.872Z,6.30
2022-09-07T05:55:41.640Z,6.70
2022-09-07T05:59:42.451Z,7.20
2022-09-07T06:03:50.775Z,8.30
2022-09-07T06:08:00.258Z,14.10
2022-09-07T06:35:11.105Z,11.60
2022-09-07T06:39:13.589Z,12.10
2022-09-07T07:03:33.406Z,8.40
2022-09-07T07:07:41.708Z,9.30
2022-09-07T07:31:40.332Z,10.10
2022-09-07T07:35:49.049Z,8.00
2022-09-07T07:43:24.347Z,9.40
2022-09-07T07:46:43.352Z,10.00
2022-09-07T07:50:32.296Z,12.80
2022-09-07T08:19:03.882Z,7.80
2022-09-07T08:23:12.237Z,7.10
2022-09-07T08:43:42.415Z,7.50
2022-09-07T08:48:03.898Z,10.30
2022-09-07T08:51:51.210Z,7.00
2022-09-07T08:55:31.883Z,7.00
2022-09-07T08:59:49.626Z,8.40
2022-09-07T09:08:43.382Z,8.80
2022-09-07T09:12:54.970Z,10.40
2022-09-07T09:17:14.717Z,5.70
2022-09-07T09:21:22.643Z,5.50
2022-09-07T09:24:29.419Z,5.10
2022-09-07T09:27:22.497Z,5.90
2022-09-07T09:30:33.454Z,4.50
2022-09-07T09:34:39.362Z,7.00
2022-09-07T10:12:51.368Z,6.50
2022-09-07T10:16:48.489Z,5.90
2022-09-07T10:20:56.573Z,8.10
2022-09-07T10:24:44.613Z,5.60
2022-09-07T10:33:27.989Z,5.80
2022-09-07T10:41:30.045Z,6.60
2022-09-07T10:44:17.984Z,4.70
2022-09-07T10:47:37.922Z,4.60
2022-09-07T10:50:48.738Z,5.00
2022-09-07T10:57:20.588Z,5.10
2022-09-07T11:00:14.478Z,7.10
2022-09-07T11:03:31.898Z,8.40
2022-09-07T11:06:45.753Z,7.10
2022-09-07T11:09:31.343Z,4.70
2022-09-07T11:12:09.044Z,6.70
2022-09-07T11:14:46.818Z,6.20
2022-09-07T11:17:19.812Z,6.30
2022-09-07T11:20:29.861Z,5.90
2022-09-07T11:23:15.077Z,4.20
2022-09-07T11:26:11.601Z,5.50
2022-09-07T11:31:53.720Z,5.20
2022-09-07T11:34:47.390Z,4.90
2022-09-07T11:37:31.314Z,5.30
2022-09-07T11:40:28.878Z,5.80
2022-09-07T11:43:25.326Z,5.00
2022-09-07T11:46:00.143Z,6.30
2022-09-07T11:48:35.644Z,5.40
2022-09-07T11:51:14.110Z,4.70
2022-09-07T11:53:48.815Z,4.80
2022-09-07T11:56:37.396Z,6.10
2022-09-07T11:59:58.402Z,5.30
2022-09-07T12:02:59.314Z,12.80
2022-09-07T12:06:12.781Z,5.70
2022-09-07T12:09:07.685Z,4.60
2022-09-07T12:12:10.057Z,6.50
2022-09-07T12:15:24.996Z,4.90
2022-09-07T12:18:01.963Z,5.90
2022-09-07T12:20:48.502Z,5.70
2022-09-07T12:23:15.460Z,4.70
2022-09-07T12:25:55.918Z,6.30
2022-09-07T12:28:25.431Z,5.60
2022-09-07T12:31:15.297Z,5.10
2022-09-07T12:33:48.088Z,5.50
2022-09-07T12:36:27.116Z,3.90
2022-09-07T12:39:33.038Z,5.20
2022-09-07T12:42:39.465Z,5.40
2022-09-07T12:45:28.442Z,5.50
2022-09-07T12:48:04.599Z,4.70
2022-09-07T12:50:59.160Z,5.10
2022-09-07T12:54:07.987Z,5.80
2022-09-07T13:00:52.482Z,7.20
2022-09-07T13:03:53.353Z,5.30
2022-09-07T13:09:54.887Z,6.20
2022-09-07T13:12:54.759Z,7.90
2022-09-07T13:16:14.047Z,6.00
2022-09-07T13:18:46.557Z,5.50
2022-09-07T13:21:43.782Z,4.20
2022-09-07T13:27:34.322Z,4.90
2022-09-07T13:31:05.600Z,5.60
2022-09-07T13:33:54.301Z,4.80
2022-09-07T13:36:50.151Z,6.30
2022-09-07T13:39:27.689Z,6.30
2022-09-07T13:42:01.582Z,4.90
2022-09-07T13:45:47.089Z,4.10
2022-09-07T13:50:01.055Z,6.40
2022-09-07T13:54:13.674Z,4.80
2022-09-07T13:58:36.716Z,6.30
2022-09-07T14:02:46.064Z,3.80
2022-09-07T14:06:34.585Z,4.00
2022-09-07T14:27:35.658Z,5.20
2022-09-07T14:31:50.839Z,7.20
2022-09-07T15:05:06.815Z,4.90
2022-09-07T15:08:01.643Z,6.90
2022-09-07T15:10:32.414Z,4.60
2022-09-07T15:13:01.335Z,5.70
2022-09-07T15:15:39.721Z,4.90
2022-09-07T15:18:55.100Z,4.70
2022-09-07T15:21:27.882Z,5.60
2022-09-07T15:23:58.651Z,4.10
2022-09-07T15:29:29.375Z,5.10
2022-09-07T15:32:03.755Z,5.90
2022-09-07T15:34:32.600Z,4.70
2022-09-07T15:37:01.701Z,5.00
2022-09-07T15:39:31.383Z,4.50
2022-09-07T15:42:58.832Z,4.00
2022-09-07T15:44:46.012Z,5.60
2022-09-07T15:50:00.945Z,4.20
2022-09-07T15:52:31.256Z,4.90
2022-09-07T15:54:59.618Z,5.10
2022-09-07T16:00:18.219Z,4.20
2022-09-07T16:03:05.827Z,4.50
2022-09-07T16:05:34.589Z,4.70
2022-09-07T16:10:55.759Z,9.10
2022-09-07T16:13:31.767Z,7.70
2022-09-07T16:15:59.837Z,4.90
2022-09-07T16:18:31.140Z,6.30
2022-09-07T16:21:11.770Z,6.20
2022-09-07T16:23:43.349Z,4.90
2022-09-07T16:26:12.036Z,5.10
2022-09-07T16:28:42.357Z,7.10
2022-09-07T16:31:15.673Z,5.00
2022-09-07T16:33:42.849Z,7.40
2022-09-07T16:36:14.480Z,5.70
2022-09-07T16:38:44.912Z,5.90
2022-09-07T16:42:37.465Z,5.60
2022-09-07T16:46:45.811Z,6.50
2022-09-07T16:50:46.307Z,9.00
2022-09-07T17:16:49.970Z,8.60
2022-09-07T17:19:49.381Z,8.60
2022-09-07T17:22:52.054Z,9.70
2022-09-07T17:25:42.498Z,9.90
2022-09-07T17:28:32.835Z,9.90
2022-09-07T17:36:11.252Z,12.70
2022-09-07T17:40:12.959Z,15.50
2022-09-07T18:09:26.713Z,28.30
2022-09-07T18:12:39.812Z,26.20
2022-09-07T18:16:30.731Z,24.10
2022-09-07T18:20:38.819Z,37.40
2022-09-07T18:24:28.285Z,38.30
2022-09-07T18:49:23.573Z,35.40
2022-09-07T19:10:11.374Z,19.90
2022-09-07T19:14:19.650Z,72.50
2022-09-07T19:30:15.999Z,17.30
2022-09-07T19:34:17.110Z,17.90
2022-09-07T19:46:48.907Z,19.00
2022-09-07T19:50:57.525Z,17.00
2022-09-07T20:07:34.679Z,20.60
2022-09-07T20:11:46.590Z,17.20
2022-09-07T20:40:18.381Z,17.00
2022-09-07T20:44:19.250Z,20.80
2022-09-07T21:05:06.509Z,13.30
2022-09-07T21:09:06.978Z,13.50
2022-09-07T21:13:15.394Z,14.70
2022-09-07T21:37:41.227Z,17.10
2022-09-07T21:41:52.008Z,15.80
2022-09-07T22:02:31.921Z,20.50
2022-09-07T22:06:39.995Z,25.00
2022-09-07T22:10:49.959Z,17.70
2022-09-07T22:35:24.531Z,19.30
2022-09-07T22:39:32.866Z,14.90
2022-09-07T22:43:42.249Z,14.40
2022-09-07T23:04:32.387Z,15.40
2022-09-07T23:08:40.861Z,13.20
2022-09-07T23:29:04.996Z,23.80
2022-09-07T23:33:13.380Z,23.20
2022-09-07T23:37:15.968Z,21.00
2022-09-07T23:53:35.864Z,21.00
2022-09-07T23:57:44.168Z,15.70
